Menlo, Georgia
Current Conditions -  °F | °C
As of 5:35 PM on Monday 20 Oct 2014 (Local Time) from K4A9 Reporting Station
Scattered Clouds Scattered Clouds  
Wind Chill: 68°   Ceiling: Unl
Heat Index: 68°   Visibility: 10mi
Dew Point: 45°   Wind: 6mph
Humidity: 43%   Direction: 300°WNW
Pressure: 29.99"   Gusts: NA
Location:  34.48°N, 85.48°W
Report Text: K4A9 202135Z AUTO 30005KT 10SM SCT120 20/07 A2999 RMK AO2
Loading
Personal Weather Stations






























Interactive Weather Map
Tropical Storm Tracking
New forecast layout! Learn more

10-Day Weather Forecast

Advertisements
Track Severe Weather on mobile